Time;durP1;ratioP1;P1;durP2;ratioP2;P2;SDS_P1;SDS_P2;PMS_P1;PMS_P2;Temp;Humidity;BMP_temperature;BMP_pressure;BME280_temperature;BME280_humidity;BME280_pressure;Samples;Min_cycle;Max_cycle;Signal;HPM_P1;HPM_P2
2023/03/13 00:12:02;;;;;;;9.50;5.40;;;;;;;6.62;41.50;98592.33;223590;186;135871;-66
2023/03/13 00:17:56;;;;;;;12.00;6.00;;;;;;;6.63;41.38;98598.07;223563;186;143491;-70
2023/03/13 00:30:29;;;;;;;11.80;5.80;;;;;;;6.75;41.61;98598.69;222822;189;136778;-67
2023/03/13 00:36:37;;;;;;;11.30;6.00;;;;;;;6.86;41.99;98588.19;222589;191;143370;-66
2023/03/13 00:48:30;;;;;;;10.90;5.60;;;;;;;7.00;42.51;98559.77;224130;216;127363;-64
2023/03/13 00:54:23;;;;;;;9.60;4.80;;;;;;;7.00;42.93;98556.60;223892;183;144991;-63
2023/03/13 02:05:31;;;;;;;5.50;2.70;;;;;;;7.36;49.21;98532.16;220958;193;666050;-64
2023/03/13 02:10:40;;;;;;;4.80;2.80;;;;;;;7.32;49.61;98543.48;223397;187;135766;-65
2023/03/13 02:15:44;;;;;;;4.40;2.40;;;;;;;7.34;50.13;98544.44;223346;187;144944;-65
2023/03/13 02:20:53;;;;;;;4.80;2.40;;;;;;;7.37;50.30;98545.01;223504;185;139442;-64
2023/03/13 02:25:57;;;;;;;5.10;2.30;;;;;;;7.42;50.52;98546.80;223457;182;137054;-64
2023/03/13 02:38:40;;;;;;;;;;;;;;;;;;;;;
2023/03/13 03:17:33;;;;;;;;;;;;;;;;;;;;;
2023/03/13 03:46:12;;;;;;;5.90;2.50;;;;;;;7.69;52.18;98588.88;221350;193;667169;-70
2023/03/13 04:45:34;;;;;;;6.80;2.80;;;;;;;8.07;53.41;98589.63;221045;192;673589;-71
2023/03/13 04:51:15;;;;;;;4.30;2.90;;;;;;;8.04;53.71;98591.96;223799;181;136752;-69
2023/03/13 04:56:42;;;;;;;6.00;3.50;;;;;;;8.05;54.39;98597.39;223790;181;144329;-67
2023/03/13 05:02:12;;;;;;;5.90;2.70;;;;;;;8.06;54.38;98597.13;223785;182;138336;-67
2023/03/13 05:07:39;;;;;;;9.00;2.60;;;;;;;8.09;54.64;98590.42;223791;181;135857;-70
2023/03/13 05:13:01;;;;;;;6.10;3.20;;;;;;;8.12;55.19;98586.04;223713;181;145479;-70
2023/03/13 05:18:23;;;;;;;5.40;3.00;;;;;;;8.14;55.07;98587.86;223729;181;138422;-68
2023/03/13 05:24:02;;;;;;;4.30;2.90;;;;;;;8.14;55.15;98588.20;223590;182;248048;-68
2023/03/13 05:29:24;;;;;;;3.80;2.60;;;;;;;8.20;55.38;98581.65;223875;182;143402;-68
2023/03/13 05:34:40;;;;;;;5.30;3.10;;;;;;;8.27;55.52;98564.24;223894;182;138679;-67
2023/03/13 05:39:58;;;;;;;4.60;3.20;;;;;;;8.30;55.70;98552.23;223782;182;136022;-66
2023/03/13 05:45:20;;;;;;;5.70;3.20;;;;;;;8.33;55.79;98548.53;223837;181;145773;-67
2023/03/13 05:50:48;;;;;;;5.90;2.80;;;;;;;8.38;55.97;98542.26;223746;181;140446;-66
2023/03/13 05:56:21;;;;;;;6.10;2.80;;;;;;;8.43;56.01;98544.42;223774;182;136295;-70
2023/03/13 06:01:48;;;;;;;4.70;3.00;;;;;;;8.48;56.23;98545.48;223845;183;147708;-67
2023/03/13 06:07:05;;;;;;;6.40;3.00;;;;;;;8.57;56.09;98543.21;223893;181;140919;-67
2023/03/13 06:12:29;;;;;;;7.40;3.40;;;;;;;8.60;56.23;98546.16;223957;183;137543;-67
2023/03/13 06:17:41;;;;;;;5.00;3.10;;;;;;;8.66;56.34;98550.38;223796;182;147129;-67
2023/03/13 06:23:05;;;;;;;7.10;3.10;;;;;;;8.73;56.51;98547.82;223769;182;140451;-68
2023/03/13 06:28:44;;;;;;;6.90;3.10;;;;;;;8.82;56.60;98550.30;223709;182;136088;-67
2023/03/13 06:40:05;;;;;;;9.50;4.00;;;;;;;8.98;56.72;98542.94;223767;183;138394;-68
2023/03/13 06:45:30;;;;;;;8.40;3.50;;;;;;;9.07;56.63;98534.71;223784;183;136170;-67
2023/03/13 06:50:55;;;;;;;7.70;3.70;;;;;;;9.16;56.77;98527.95;223569;185;145384;-70
2023/03/13 07:03:33;;;;;;;;;;;;;;;;;;;;;
2023/03/13 07:09:31;;;;;;;12.60;3.50;;;;;;;9.54;56.48;98521.27;224083;184;145175;-72
2023/03/13 07:42:10;;;;;;;9.20;3.30;;;;;;;9.90;55.92;98506.28;223482;184;137234;-72
2023/03/13 07:47:35;;;;;;;7.80;3.30;;;;;;;10.09;55.87;98498.20;223074;186;147014;-67
2023/03/13 07:53:01;;;;;;;9.20;3.00;;;;;;;10.23;55.56;98490.17;222994;185;138481;-70
2023/03/13 07:58:55;;;;;;;7.80;3.00;;;;;;;10.31;55.51;98484.64;222677;189;137064;-70
2023/03/13 08:05:29;;;;;;;14.90;3.00;;;;;;;10.46;55.73;98479.19;223509;185;145464;-70
2023/03/13 08:10:44;;;;;;;10.90;3.20;;;;;;;10.68;55.32;98470.91;223585;184;140637;-70
2023/03/13 08:16:08;;;;;;;9.60;3.10;;;;;;;10.80;54.90;98474.62;223518;184;136735;-71
2023/03/13 08:22:07;;;;;;;11.50;3.20;;;;;;;10.91;54.67;98470.80;223425;184;145042;-70
2023/03/13 08:27:30;;;;;;;5.80;3.00;;;;;;;10.96;54.51;98462.30;223773;184;138933;-69
2023/03/13 08:32:42;;;;;;;6.60;2.80;;;;;;;11.00;54.39;98454.19;223545;184;136420;-67
2023/03/13 08:38:01;;;;;;;8.60;3.00;;;;;;;11.08;54.33;98456.60;223568;184;147371;-67
2023/03/13 08:43:10;;;;;;;33.70;20.20;;;;;;;11.16;54.08;98449.45;223664;184;138873;-67
2023/03/13 08:48:22;;;;;;;11.80;4.00;;;;;;;11.27;54.07;98448.68;223513;184;136906;-67
2023/03/13 08:53:32;;;;;;;8.90;3.00;;;;;;;11.38;53.67;98439.08;223570;184;145581;-66
2023/03/13 08:58:38;;;;;;;8.80;2.90;;;;;;;11.52;53.34;98436.45;223542;184;138452;-67
2023/03/13 09:03:43;;;;;;;8.50;3.00;;;;;;;11.66;52.76;98432.23;223488;184;139048;-66
2023/03/13 09:35:20;;;;;;;9.50;2.80;;;;;;;12.54;50.26;98388.70;221518;193;665987;-64
2023/03/13 09:41:09;;;;;;;8.30;2.60;;;;;;;12.69;49.85;98387.65;223301;187;137272;-65
2023/03/13 09:47:26;;;;;;;9.80;2.70;;;;;;;12.87;49.13;98388.48;223855;183;144943;-67
2023/03/13 09:53:26;;;;;;;7.70;2.10;;;;;;;13.06;48.27;98382.01;223757;183;138747;-66
2023/03/13 09:58:39;;;;;;;7.60;2.40;;;;;;;13.22;47.97;98369.61;223765;183;136557;-65
2023/03/13 10:04:04;;;;;;;6.50;2.10;;;;;;;13.44;47.51;98363.84;223761;184;143958;-68
2023/03/13 10:09:29;;;;;;;9.40;2.10;;;;;;;13.62;47.02;98355.52;223705;182;140132;-69
2023/03/13 10:14:41;;;;;;;9.80;2.30;;;;;;;13.67;46.48;98357.61;223786;183;137485;-66
2023/03/13 10:19:50;;;;;;;8.60;2.60;;;;;;;13.54;46.37;98350.36;223859;182;145008;-67
2023/03/13 10:25:26;;;;;;;9.10;2.00;;;;;;;13.51;46.38;98353.45;223811;183;139457;-68
2023/03/13 10:30:44;;;;;;;6.70;2.30;;;;;;;13.64;46.13;98350.55;223712;183;137258;-66
2023/03/13 10:36:23;;;;;;;5.00;1.80;;;;;;;13.82;45.64;98342.26;223697;183;145422;-66
2023/03/13 10:41:32;;;;;;;5.70;1.90;;;;;;;14.10;45.64;98331.60;223612;183;140549;-66
2023/03/13 10:46:44;;;;;;;8.90;2.50;;;;;;;14.29;44.49;98329.92;223639;184;136718;-68
2023/03/13 11:35:36;;;;;;;5.20;2.00;;;;;;;15.37;39.67;98249.13;220728;193;666461;-66
2023/03/13 11:41:13;;;;;;;7.10;2.10;;;;;;;15.25;39.42;98238.52;223243;187;136560;-65
2023/03/13 11:46:45;;;;;;;9.10;1.30;;;;;;;15.12;39.48;98232.73;223860;182;143605;-68
2023/03/13 11:52:00;;;;;;;4.10;1.60;;;;;;;15.06;39.71;98223.46;223692;183;139001;-68
2023/03/13 11:57:16;;;;;;;5.30;1.60;;;;;;;15.02;39.59;98221.91;223751;182;137186;-65
2023/03/13 12:02:44;;;;;;;8.00;1.80;;;;;;;15.01;39.20;98219.14;223788;182;144368;-66
2023/03/13 12:08:01;;;;;;;3.60;1.30;;;;;;;14.90;38.76;98206.52;223712;182;138755;-67
2023/03/13 12:13:21;;;;;;;4.40;1.30;;;;;;;14.83;39.04;98185.42;223830;182;139974;-65
2023/03/13 12:18:35;;;;;;;5.10;1.50;;;;;;;14.85;39.28;98181.30;223734;182;143626;-66
2023/03/13 12:23:38;;;;;;;5.70;1.40;;;;;;;14.83;38.83;98183.42;223732;183;138435;-65
2023/03/13 12:28:48;;;;;;;4.20;1.40;;;;;;;14.82;38.31;98161.13;223721;183;136371;-67
2023/03/13 12:34:26;;;;;;;4.20;1.10;;;;;;;14.82;37.51;98138.42;223750;183;147286;-64
2023/03/13 12:39:46;;;;;;;3.90;1.00;;;;;;;14.84;37.01;98132.30;223756;183;140168;-65
2023/03/13 12:44:50;;;;;;;4.50;1.20;;;;;;;14.87;36.33;98130.36;223679;184;136452;-64
2023/03/13 12:49:53;;;;;;;9.00;1.30;;;;;;;14.94;36.50;98127.31;223435;183;145180;-65
2023/03/13 12:55:08;;;;;;;4.80;1.00;;;;;;;14.99;36.05;98111.80;223373;182;138366;-67
2023/03/13 13:00:24;;;;;;;1.80;1.20;;;;;;;15.05;35.99;98106.70;223649;182;136948;-65
2023/03/13 13:05:27;;;;;;;;;;;;;;;15.14;35.89;98103.38;223733;182;145198;-67
2023/03/13 13:10:30;;;;;;;2.90;1.50;;;;;;;15.20;35.57;98100.14;223668;183;138149;-67
2023/03/13 13:15:34;;;;;;;6.00;1.30;;;;;;;15.24;35.01;98101.16;223613;181;136527;-69
2023/03/13 13:20:47;;;;;;;2.80;0.90;;;;;;;15.26;34.30;98103.09;223655;182;146234;-67
2023/03/13 13:25:54;;;;;;;3.10;1.30;;;;;;;15.23;34.34;98091.46;223567;182;138372;-66
2023/03/13 13:30:58;;;;;;;3.60;1.20;;;;;;;15.20;34.13;98091.52;223679;182;136104;-67
2023/03/13 13:36:08;;;;;;;2.20;1.30;;;;;;;15.20;34.85;98097.11;223692;182;145945;-68
2023/03/13 13:41:11;;;;;;;4.90;1.20;;;;;;;15.18;35.57;98115.52;223558;182;138712;-68
2023/03/13 14:45:37;;;;;;;6.70;1.40;;;;;;;13.78;45.58;98085.69;221049;192;665462;-66
2023/03/13 14:50:42;;;;;;;6.50;1.50;;;;;;;13.71;45.44;98077.07;223344;187;135766;-68
2023/03/13 14:55:48;;;;;;;6.30;1.60;;;;;;;13.64;45.57;98072.48;223712;182;144286;-65
2023/03/13 15:00:57;;;;;;;4.00;1.60;;;;;;;13.60;45.78;98074.70;223684;183;138405;-66
2023/03/13 15:06:06;;;;;;;2.60;1.10;;;;;;;13.56;45.96;98065.89;223874;183;136432;-68
2023/03/13 15:11:28;;;;;;;4.10;1.50;;;;;;;13.56;45.99;98072.17;223836;182;143929;-67
2023/03/13 15:16:32;;;;;;;7.90;2.00;;;;;;;13.55;45.97;98069.56;223612;182;138519;-65
2023/03/13 15:21:36;;;;;;;3.00;1.60;;;;;;;13.54;45.87;98066.50;223893;182;136896;-66
2023/03/13 15:26:43;;;;;;;2.40;1.30;;;;;;;13.50;46.19;98067.92;223733;182;144930;-68
2023/03/13 15:31:53;;;;;;;7.60;1.60;;;;;;;13.47;46.42;98062.63;223780;182;139199;-67
2023/03/13 15:36:56;;;;;;;4.20;1.60;;;;;;;13.43;46.52;98062.81;223775;182;135885;-65
2023/03/13 15:42:00;;;;;;;3.00;1.60;;;;;;;13.39;46.86;98053.73;223736;182;145331;-66
2023/03/13 15:47:04;;;;;;;8.00;1.90;;;;;;;13.39;47.05;98057.43;223832;181;140961;-70
2023/03/13 15:58:23;;;;;;;4.50;1.70;;;;;;;13.39;47.60;98048.86;218494;193;3694402;-65
2023/03/13 16:03:27;;;;;;;3.10;1.70;;;;;;;13.37;47.78;98040.50;223519;185;143961;-68
2023/03/13 16:08:31;;;;;;;3.60;1.70;;;;;;;13.35;47.97;98043.73;223550;184;138492;-67
2023/03/13 16:13:39;;;;;;;5.30;2.30;;;;;;;13.35;47.96;98044.62;223544;184;135849;-67
2023/03/13 16:18:44;;;;;;;3.50;2.00;;;;;;;13.36;48.05;98045.28;223661;184;145289;-68
2023/03/13 16:23:48;;;;;;;3.20;1.90;;;;;;;13.38;47.95;98054.54;223674;183;138743;-67
2023/03/13 16:28:53;;;;;;;4.40;1.80;;;;;;;13.39;48.05;98053.90;223723;183;136191;-68
2023/03/13 16:33:58;;;;;;;280.40;167.70;;;;;;;13.41;48.07;98049.08;223641;184;144833;-65
2023/03/13 16:42:08;;;;;;;6.30;2.40;;;;;;;13.46;47.98;98043.50;218665;193;1007212;-65
2023/03/13 16:47:20;;;;;;;3.60;1.90;;;;;;;13.40;47.97;98048.46;223060;187;136773;-65
2023/03/13 16:52:24;;;;;;;7.90;2.00;;;;;;;13.40;47.96;98052.23;223282;187;143925;-65
2023/03/13 16:57:27;;;;;;;5.20;2.30;;;;;;;13.40;47.88;98052.20;223402;185;138260;-64
2023/03/13 17:02:30;;;;;;;16.30;12.90;;;;;;;13.37;47.85;98042.52;223232;186;136528;-65
2023/03/13 17:07:40;;;;;;;3.60;2.10;;;;;;;13.37;47.89;98029.28;223340;185;143148;-63
2023/03/13 17:12:43;;;;;;;3.10;1.70;;;;;;;13.37;47.89;98029.72;223288;186;138430;-68
2023/03/13 17:17:52;;;;;;;3.20;1.80;;;;;;;13.32;47.88;98023.52;223758;183;136256;-65
2023/03/13 17:22:56;;;;;;;50.70;33.70;;;;;;;13.34;48.04;98024.25;223613;183;143495;-67
2023/03/13 17:28:00;;;;;;;5.00;3.10;;;;;;;13.36;48.06;98009.48;223689;183;139150;-65
2023/03/13 17:33:05;;;;;;;3.30;2.10;;;;;;;13.37;47.95;98000.48;223751;183;136312;-66
2023/03/13 17:38:10;;;;;;;274.40;189.70;;;;;;;13.35;48.29;97997.40;223639;183;145178;-65
2023/03/13 17:43:13;;;;;;;8.30;5.20;;;;;;;13.35;48.88;97990.08;223556;183;138897;-65
2023/03/13 17:48:19;;;;;;;;;;;;;;;13.19;49.09;97984.73;223777;183;138188;-67
2023/03/13 17:53:23;;;;;;;12.30;6.10;;;;;;;13.07;49.32;97974.11;223723;183;144984;-69
2023/03/13 17:58:27;;;;;;;16.30;5.70;;;;;;;12.97;49.46;97976.73;223630;183;140495;-67
2023/03/13 18:03:32;;;;;;;12.60;5.80;;;;;;;12.86;49.84;97970.61;223706;183;136697;-67
2023/03/13 18:08:36;;;;;;;10.60;6.20;;;;;;;12.73;50.02;97964.98;223708;183;146084;-66
2023/03/13 18:13:40;;;;;;;14.10;5.90;;;;;;;12.61;50.47;97951.71;223449;183;139262;-67
2023/03/13 18:18:43;;;;;;;16.10;5.80;;;;;;;12.55;50.56;97951.96;223655;183;136711;-69
2023/03/13 18:23:47;;;;;;;12.10;5.50;;;;;;;12.53;50.67;97947.89;223512;184;145432;-66
2023/03/13 18:28:58;;;;;;;14.60;6.30;;;;;;;12.51;50.83;97930.42;223626;183;138654;-66
2023/03/13 18:34:03;;;;;;;12.10;6.30;;;;;;;12.47;51.23;97923.34;223730;183;137183;-65
2023/03/13 18:39:13;;;;;;;14.50;6.60;;;;;;;12.38;51.41;97908.83;223683;183;146615;-67
2023/03/13 18:44:19;;;;;;;11.30;6.30;;;;;;;12.35;51.31;97893.43;223583;183;140184;-67
2023/03/13 18:49:23;;;;;;;10.20;5.30;;;;;;;12.37;51.21;97884.91;223612;183;137117;-67
2023/03/13 18:54:27;;;;;;;9.90;5.40;;;;;;;12.40;51.02;97873.41;223458;183;265330;-66
2023/03/13 18:59:35;;;;;;;88.30;59.90;;;;;;;12.40;50.99;97867.71;223616;182;138524;-65
2023/03/13 19:04:38;;;;;;;15.30;7.00;;;;;;;12.49;51.06;97856.64;223601;183;136900;-63
2023/03/13 19:09:43;;;;;;;15.80;5.40;;;;;;;12.51;50.67;97856.61;223585;183;147696;-65
2023/03/13 19:14:56;;;;;;;13.60;5.70;;;;;;;12.46;50.84;97857.60;223563;182;138321;-66
2023/03/13 19:20:00;;;;;;;17.80;6.70;;;;;;;12.35;51.02;97846.62;223602;183;137412;-68
2023/03/13 19:25:06;;;;;;;13.70;6.20;;;;;;;12.25;51.40;97846.10;223635;183;146469;-71
2023/03/13 19:30:19;;;;;;;13.10;6.00;;;;;;;12.14;51.89;97837.48;223646;183;138347;-70
2023/03/13 19:35:23;;;;;;;16.20;6.80;;;;;;;12.02;52.23;97836.38;223639;183;137442;-71
2023/03/13 19:40:27;;;;;;;19.90;6.70;;;;;;;11.88;52.56;97832.46;223601;183;145159;-73
2023/03/13 19:45:32;;;;;;;16.30;6.00;;;;;;;11.72;52.71;97835.91;223658;183;140281;-75
2023/03/13 19:50:36;;;;;;;49.70;27.50;;;;;;;11.62;52.83;97837.86;223684;183;136457;-69
2023/03/13 19:55:40;;;;;;;20.80;7.30;;;;;;;11.66;53.80;97838.39;223646;183;145763;-74
2023/03/13 20:00:54;;;;;;;19.40;6.60;;;;;;;11.58;53.24;97826.14;223649;183;138258;-72
2023/03/13 20:06:00;;;;;;;26.90;7.00;;;;;;;11.42;53.40;97822.20;223532;184;137921;-67
2023/03/13 20:11:05;;;;;;;20.90;7.40;;;;;;;11.30;53.72;97821.81;223625;183;145240;-69
2023/03/13 20:16:10;;;;;;;27.00;7.10;;;;;;;11.18;53.91;97838.75;223669;183;138626;-71
2023/03/13 20:21:16;;;;;;;28.20;8.00;;;;;;;11.09;54.32;97834.92;223563;182;137474;-72
2023/03/13 20:26:20;;;;;;;19.10;7.60;;;;;;;11.00;54.68;97828.91;223690;183;145681;-73
2023/03/13 20:31:28;;;;;;;21.70;8.50;;;;;;;10.93;54.83;97818.31;223696;183;138388;-70
2023/03/13 21:45:33;;;;;;;16.20;7.00;;;;;;;10.77;52.90;97739.29;219681;193;665872;-73
2023/03/13 21:50:40;;;;;;;19.70;6.50;;;;;;;10.65;53.24;97726.60;223602;185;136471;-71
2023/03/13 21:55:47;;;;;;;18.40;7.90;;;;;;;10.56;53.38;97722.59;223558;185;144255;-75
2023/03/13 22:00:55;;;;;;;13.30;7.10;;;;;;;10.54;52.96;97717.29;223516;186;140665;-73
2023/03/13 22:06:00;;;;;;;16.60;5.90;;;;;;;10.68;51.90;97705.64;223644;184;137535;-69
2023/03/13 22:11:10;;;;;;;12.50;5.20;;;;;;;10.75;51.50;97699.15;223802;182;143336;-70
2023/03/13 22:16:27;;;;;;;10.10;4.60;;;;;;;10.83;50.92;97691.23;223784;182;139216;-72
2023/03/13 22:21:30;;;;;;;;;;;;;;;11.04;49.94;97692.96;223731;183;136887;-71
2023/03/13 22:26:34;;;;;;;16.60;5.40;;;;;;;11.27;48.82;97690.97;223832;183;143274;-69
2023/03/13 22:31:38;;;;;;;12.50;4.40;;;;;;;11.41;49.47;97695.31;223751;182;140341;-71
2023/03/13 22:36:42;;;;;;;15.20;4.90;;;;;;;11.44;49.25;97697.21;223696;183;137496;-68
2023/03/13 22:41:46;;;;;;;15.70;4.70;;;;;;;11.44;49.56;97700.52;223685;183;147402;-73
2023/03/13 22:46:53;;;;;;;11.90;4.80;;;;;;;11.37;50.11;97702.20;223656;183;138950;-70
2023/03/13 22:51:58;;;;;;;12.70;5.10;;;;;;;11.30;50.72;97697.27;223787;182;136785;-68
2023/03/13 22:57:05;;;;;;;8.20;3.50;;;;;;;11.26;51.52;97685.78;223779;183;147215;-70
2023/03/13 23:02:10;;;;;;;;;;;;;;;11.31;50.44;97674.30;223750;183;138715;-72
2023/03/13 23:07:16;;;;;;;16.00;4.50;;;;;;;11.32;51.12;97674.05;223876;183;132552;-68
2023/03/13 23:12:23;;;;;;;12.00;4.80;;;;;;;11.23;51.03;97671.09;223616;183;146046;-74
2023/03/13 23:17:35;;;;;;;5.40;2.60;;;;;;;11.14;51.16;97655.55;223769;183;139066;-72
2023/03/13 23:22:44;;;;;;;7.90;2.80;;;;;;;11.33;49.03;97656.89;223580;183;137141;-71
2023/03/13 23:27:48;;;;;;;5.20;2.80;;;;;;;11.69;47.85;97649.61;223733;183;145252;-74
2023/03/13 23:32:52;;;;;;;6.10;2.70;;;;;;;11.95;46.75;97629.74;223753;184;138595;-68
2023/03/13 23:42:49;;;;;;;4.30;2.00;;;;;;;12.43;44.86;97616.16;221246;193;665759;-70
2023/03/13 23:47:53;;;;;;;7.70;2.30;;;;;;;12.64;44.12;97607.94;223499;184;135945;-71
2023/03/13 23:52:56;;;;;;;4.20;2.00;;;;;;;12.79;43.52;97596.98;223529;185;145382;-71
